Windsor Airport
CYQG : now visible

Airfield :











YOU CAN JOIN US ON...

 
LOGIN :

Register | Disclaimer

   EN    FR    IT 

 









Legend :    VFR   Marginal VFR   IFR   Intensive IFR   Very Intensive IFR
Visi :
Ceiling :
>= 8 km
>= 3000ft
5 to 8 km
1000 to 3000 ft
1500m to 5 km
500 to 1000 ft
800 to 1500m
200 to 500 ft
< 800m
< 200 ft
Symbols :   Thunderstorms  Fog  Heavy snow  Heavy precipitations  Wind > 20 kt






- Airport Elevation : 622 ft
- IATA code : YQG


CYQG - Windsor

CURRENT METAR :
  • 131652Z AUTO 20012G18KT 9SM FEW016 SCT023 OVC110 M05/M11 A3037 RMK SLP296

EXPIRED METARs :
  • 131633Z AUTO 21009KT 9SM FEW016 BKN023 BKN110 OVC130 M05/M09 A3037 RMK SLP297
  • 131600Z AUTO 23007KT 9SM FEW110 M06/M10 A3038 RMK SLP301
  • 131500Z AUTO 22005KT 9SM BKN100 OVC120 M08/M10 A3039 RMK SLP304

TAF TAF CYQG
Valid from the 13 at 12:00 until the 14 at 12:00 UTC


131138Z 1312/1412 22005KT P6SM SCT200 BKN240
FM131700 22010G20KT P6SM SCT015 BKN130
TEMPO 1317/1323 BKN015 OVC130
FM132300 19012KT P6SM OVC100
FM140400 23010KT 21/2SM -SN SCT040 OVC080
FM140900 24008KT P6SM SCT050 BKN080 RMK FCST BASED ON AUTO OBS. NXT FCST BY 131800Z



MET'MAP, your aeronautical weather chart ! - Copyright ORBIFLY December 2007 - Disclaimer

ORBIFLY MET'MAP TEAM :

Programming & Development : Alexandra Zaïnal
Concept & Development : Baudouin d'Aumeries
Co-Development & Prog : Marc-Olivier Méhu
Technical & hardware support : Manuel Goepfert

Contact : metmap@orbifly.com




SOURCES & CREDITS :

   NOAA       Earth
Advisory